CSUN Campus Station - National Weather Service Data Page - PST Time




                Date      RH     Dew  Seasonal     Current   Max Air   Min Air    Wind    Wind    Wind    Gust     Bar    Rain
                Time       %   Point      Rain    Air Temp     Since     Since   Speed    Gust     Dir     Dir   Press   Total
                               Deg F    Inches       Deg F  Midnight  Midnight     MPH     MPH                      mb  Inches
------------------------------------------------------------------------------------------------------------------------------
    02/28/2015 00:00      73    45.8      7.12        54.7      61.4      51.3       1       1     182     187    1006    0.00
    02/28/2015 00:10      72    45.9      7.12        54.6      54.9      54.4       1       4     231     257    1006    0.00
    02/28/2015 00:20      70    45.6      7.12        54.8      55.0      54.4       2       4     253     241    1006    0.00
    02/28/2015 00:30      70    45.4      7.12        54.9      55.1      54.4       2       5     272     257    1006    0.00
    02/28/2015 00:40      70    45.3      7.12        54.9      55.1      54.4       2       5     270     257    1006    0.00
    02/28/2015 00:50      71    45.3      7.12        54.7      55.1      54.4       3       6     262     268    1006    0.00
    02/28/2015 01:00      71    45.3      7.12        54.6      55.1      54.4       3       7     266     248    1006    0.00
    02/28/2015 01:10      71    45.3      7.12        54.5      55.1      54.3       2       4     270     234    1006    0.00
    02/28/2015 01:20      72    45.3      7.12        54.4      55.1      54.1       2       4     276     285    1006    0.00
    02/28/2015 01:30      72    45.3      7.12        54.0      55.1      53.8       3       7     273     256    1006    0.00
    02/28/2015 01:40      73    45.1      7.12        53.7      55.1      53.4       3       6     269     243    1006    0.00
    02/28/2015 01:50      73    45.1      7.12        53.5      55.1      53.3       2       4     269     239    1006    0.00
    02/28/2015 02:00      73    45.1      7.12        53.4      55.1      53.2       2       5     266     251    1007    0.00
    02/28/2015 02:10      73    45.0      7.12        53.4      55.1      53.1       1       4     271     252    1007    0.00
    02/28/2015 02:20      73    44.8      7.12        53.2      55.1      52.8       2       4     245     258    1007    0.00
    02/28/2015 02:30      72    44.6      7.12        53.0      55.1      52.8       1       3     220     250    1006    0.00
    02/28/2015 02:40      72    44.1      7.12        52.8      55.1      52.6       2       4     224     250    1006    0.00
    02/28/2015 02:50      72    44.0      7.12        52.7      55.1      52.5       2       4     229     218    1006    0.00
    02/28/2015 03:00      73    44.0      7.12        52.5      55.1      52.3       1       3     220     203    1006    0.00
    02/28/2015 03:10      73    44.0      7.12        52.4      55.1      52.2       1       4     241     255    1006    0.00
    02/28/2015 03:20      74    44.1      7.12        52.4      55.1      52.2       3       6     262     246    1006    0.00
    02/28/2015 03:30      73    44.0      7.12        52.3      55.1      52.1       2       6     264     252    1006    0.00
    02/28/2015 03:40      72    43.6      7.12        52.2      55.1      51.9       2       5     262     243    1006    0.00
    02/28/2015 03:50      72    43.2      7.12        51.9      55.1      51.6       1       3     282     264    1006    0.00
    02/28/2015 04:00      71    42.7      7.12        51.5      55.1      51.2       2       5     284     281    1006    0.00
    02/28/2015 04:10      72    42.3      7.12        51.2      55.1      50.8       1       3     241     252    1006    0.00
    02/28/2015 04:20      72    42.2      7.12        50.8      55.1      50.6       1       3     239     255    1006    0.00
    02/28/2015 04:30      73    42.1      7.12        50.6      55.1      50.4       1       2     235     257    1006    0.00
    02/28/2015 04:40      73    42.3      7.12        50.5      55.1      50.4       0       1     265     259    1007    0.00
    02/28/2015 04:50      73    42.2      7.12        50.4      55.1      50.2       0       1     276     282    1007    0.00
    02/28/2015 05:00      74    42.0      7.12        50.2      55.1      49.9       0       1     245     245    1007    0.00
    02/28/2015 05:10      73    41.6      7.12        49.6      55.1      49.3       1       3     211     199    1007    0.00
    02/28/2015 05:20      71    40.9      7.12        49.4      55.1      49.2       1       3     207     216    1007    0.00
    02/28/2015 05:30      72    40.8      7.12        49.5      55.1      49.2       0       0       0     213    1007    0.00
    02/28/2015 05:40      72    40.8      7.12        49.4      55.1      49.1       0       1     213     188    1007    0.00
    02/28/2015 05:50      72    40.6      7.12        49.2      55.1      49.0       0       1     209     207    1007    0.00
    02/28/2015 06:00      72    40.5      7.12        49.1      55.1      48.9       0       0       0     220    1007    0.00
    02/28/2015 06:10      71    40.3      7.12        49.1      55.1      48.9       0       1     199     191    1007    0.00
    02/28/2015 06:20      72    39.9      7.12        48.7      55.1      48.3       0       1     138     171    1007    0.00
    02/28/2015 06:30      74    39.9      7.12        48.0      55.1      47.7       0       0       0     110    1007    0.00
    02/28/2015 06:40      75    39.9      7.12        47.5      55.1      47.2       0       0     104     104    1007    0.00
    02/28/2015 06:50      77    40.3      7.12        47.4      55.1      46.9       0       1      86      90    1007    0.00
    02/28/2015 07:00      76    40.7      7.12        47.8      55.1      46.9       0       1     135     139    1007    0.00
    02/28/2015 07:10      78    40.5      7.12        47.4      55.1      46.9       1       2     163     146    1008    0.00
    02/28/2015 07:20      73    41.5      7.12        48.5      55.1      46.9       0       2     121     160    1008    0.00
    02/28/2015 07:30      70    41.3      7.12        50.1      55.1      46.9       1       2     144     168    1008    0.00
    02/28/2015 07:40      66    41.3      7.12        51.4      55.1      46.9       0       1     155     159    1008    0.00
    02/28/2015 07:50      66    41.2      7.12        52.0      55.1      46.9       1       3     186     196    1008    0.00
    02/28/2015 08:00      62    41.0      7.12        53.0      55.1      46.9       1       3     175     200    1009    0.00
    02/28/2015 08:10      60    40.9      7.12        53.6      55.1      46.9       1       3     191     180    1009    0.00
    02/28/2015 08:20      59    40.8      7.12        54.3      55.1      46.9       2       4     194     176    1009    0.00
    02/28/2015 08:30      61    40.1      7.12        53.7      55.1      46.9       1       3      78     171    1009    0.00
    02/28/2015 08:40      59    40.1      7.12        53.7      55.1      46.9       2       4     205     190    1009    0.00
    02/28/2015 08:50      59    40.0      7.12        53.9      55.1      46.9       1       5     134     133    1009    0.00
    02/28/2015 09:00      59    40.2      7.12        54.2      55.1      46.9       2       5     165     130    1009    0.00
    02/28/2015 09:10      58    39.9      7.12        54.2      55.1      46.9       1       3     155     147    1009    0.00
    02/28/2015 09:20      59    40.0      7.12        54.4      55.1      46.9       2       6     151     147    1009    0.00
    02/28/2015 09:30      55    40.7      7.12        55.7      56.2      46.9       4       7     186     156    1010    0.00
    02/28/2015 09:40      54    40.7      7.12        56.4      56.9      46.9       3       7     217     187    1010    0.00
    02/28/2015 09:50      52    38.9      7.12        55.8      56.9      46.9       5      10     187     183    1010    0.00
    02/28/2015 10:00      53    37.8      7.12        55.1      56.9      46.9       7      10     194     207    1010    0.00
    02/28/2015 10:10      52    38.7      7.12        55.5      56.9      46.9       5       9     183     207    1010    0.00
    02/28/2015 10:20      47    37.5      7.12        56.4      56.9      46.9       4       7     204     187    1010    0.00
    02/28/2015 10:30      47    38.2      7.12        56.8      57.3      46.9       4      10     210     202    1010    0.00
    02/28/2015 10:40      50    37.7      7.12        57.0      57.5      46.9       6      10     202     201    1010    0.00
    02/28/2015 10:50      45    37.5      7.12        57.7      58.3      46.9       4       7     203     203    1010    0.00
    02/28/2015 11:00      43    36.5      7.12        58.0      58.4      46.9       3       6     208     210    1010    0.00
    02/28/2015 11:10      44    36.4      7.12        57.8      58.4      46.9       4       9     211     265    1010    0.00
    02/28/2015 11:20      45    36.4      7.12        57.4      58.4      46.9       4       9     174     215    1010    0.00
    02/28/2015 11:30      44    37.5      7.12        58.8      60.1      46.9       3       7     200     223    1010    0.00
    02/28/2015 11:40      42    37.7      7.12        60.2      60.6      46.9       5      10     179     170    1009    0.00
    02/28/2015 11:50      41    36.5      7.12        60.5      61.0      46.9       4      10     197     189    1009    0.00
    02/28/2015 12:00      38    35.7      7.12        60.3      61.0      46.9       5      11     190     184    1009    0.00
    02/28/2015 12:10      37    34.4      7.12        61.7      62.5      46.9       4      12     223     255    1009    0.00
    02/28/2015 12:20      41    35.1      7.12        61.0      62.5      46.9       6      10     190     186    1009    0.00
    02/28/2015 12:30      39    35.0      7.12        59.9      62.5      46.9       3       8     219     155    1009    0.00
    02/28/2015 12:40      42    35.9      7.12        59.5      62.5      46.9       4       9     240     254    1009    0.00
    02/28/2015 12:50      43    36.5      7.12        59.3      62.5      46.9       4       9     251     252    1009    0.00
    02/28/2015 13:00      43    36.7      7.12        59.4      62.5      46.9       4      10     207     205    1009    0.00
    02/28/2015 13:10      35    35.7      7.12        60.7      62.5      46.9       4       7     193     161    1008    0.00
    02/28/2015 13:20      37    35.7      7.12        62.0      63.1      46.9       3       8     218     256    1008    0.00
    02/28/2015 13:30      39    36.1      7.12        63.3      63.7      46.9       4      10     230     248    1008    0.00
    02/28/2015 13:40      37    35.5      7.12        63.0      63.7      46.9       6      14     201     189    1008    0.00
    02/28/2015 13:50      38    35.5      7.12        61.5      63.7      46.9       6      14     216     172    1008    0.00
    02/28/2015 14:00      39    36.9      7.12        62.4      63.7      46.9       6      11     188     178    1008    0.00
    02/28/2015 14:10      40    36.0      7.12        62.5      63.9      46.9       7      12     189     197    1008    0.00
    02/28/2015 14:20      42    36.5      7.12        61.0      63.9      46.9       7      17     209     195    1008    0.00
    02/28/2015 14:30      45    37.8      7.12        59.8      63.9      46.9       5      12     211     185    1008    0.00
    02/28/2015 14:40      44    37.8      7.12        60.9      63.9      46.9       9      16     191     197    1008    0.00
    02/28/2015 14:50      43    37.8      7.12        60.4      63.9      46.9       9      17     203     193    1008    0.00
    02/28/2015 15:00      39    37.8      7.12        61.2      63.9      46.9       7      14     207     189    1008    0.00
    02/28/2015 15:10      38    36.4      7.12        61.7      63.9      46.9       5      13     217     176    1008    0.00
    02/28/2015 15:20      39    35.8      7.12        61.4      63.9      46.9       7      16     211     194    1008    0.00
    02/28/2015 15:30      40    36.2      7.12        61.2      63.9      46.9       6      13     209     188    1008    0.00
    02/28/2015 15:40      39    36.3      7.12        61.0      63.9      46.9       7      15     218     254    1008    0.00
    02/28/2015 15:50      41    36.3      7.12        60.7      63.9      46.9       9      17     203     202    1008    0.00
    02/28/2015 16:00      38    36.0      7.12        60.6      63.9      46.9       5      11     218     203    1008    0.00
    02/28/2015 16:10      43    36.9      7.12        59.9      63.9      46.9       5      12     224     226    1008    0.00
    02/28/2015 16:20      44    38.0      7.12        59.3      63.9      46.9       4      12     238     257    1008    0.00
    02/28/2015 16:30      46    37.9      7.12        59.0      63.9      46.9       4       8     217     184    1009    0.00
    02/28/2015 16:40      45    37.5      7.12        58.4      63.9      46.9       4      15     215     183    1009    0.00
    02/28/2015 16:50      53    37.9      7.12        57.9      63.9      46.9       6      13     213     254    1009    0.00
    02/28/2015 17:00      56    41.2      7.12        56.8      63.9      46.9       8      12     194     200    1009    0.00
    02/28/2015 17:10      57    41.1      7.12        56.3      63.9      46.9      10      14     177     176    1009    0.00
    02/28/2015 17:20      58    41.0      7.12        55.8      63.9      46.9       9      14     171     193    1009    0.00
    02/28/2015 17:30      59    40.9      7.12        55.4      63.9      46.9       8      13     164     152    1009    0.00
    02/28/2015 17:40      61    41.2      7.12        55.0      63.9      46.9       9      16     169     183    1009    0.00
    02/28/2015 17:50      62    41.4      7.12        54.5      63.9      46.9       7      11     175     183    1009    0.00
    02/28/2015 18:00      63    41.5      7.12        54.1      63.9      46.9       6      11     166     159    1009    0.00
    02/28/2015 18:10      63    41.7      7.12        54.0      63.9      46.9       5      11     156     151    1010    0.00
    02/28/2015 18:20      64    41.8      7.12        53.8      63.9      46.9       6      10     161     162    1010    0.00
    02/28/2015 18:30      64    42.0      7.12        53.8      63.9      46.9       5       8     168     165    1010    0.00
    02/28/2015 18:40      64    41.9      7.12        53.8      63.9      46.9       5       9     167     162    1010    0.00
    02/28/2015 18:50      65    41.9      7.12        53.7      63.9      46.9       5       7     175     181    1010    0.00
    02/28/2015 19:00      66    42.3      7.12        53.7      63.9      46.9       5       8     163     162    1010    0.00
    02/28/2015 19:10      66    42.3      7.12        53.5      63.9      46.9       6      10     160     158    1010    0.00
    02/28/2015 19:20      66    42.5      7.12        53.5      63.9      46.9       3       6     153     167    1010    0.00
    02/28/2015 19:30      66    42.5      7.12        53.5      63.9      46.9       2       5     148     169    1010    0.00
    02/28/2015 19:40      66    42.5      7.12        53.6      63.9      46.9       3       6     151     121    1010    0.00
    02/28/2015 19:50      66    42.6      7.12        53.6      63.9      46.9       4       7     161     162    1011    0.00
    02/28/2015 20:00      68    43.0      7.12        53.6      63.9      46.9       4       6     153     137    1011    0.00
    02/28/2015 20:10      76    44.3      7.12        53.1      63.9      46.9       3       6     160     166    1011    0.00
    02/28/2015 20:20      78    45.5      7.13        52.4      63.9      46.9       3       7     144     134    1011    0.01
    02/28/2015 20:30      81    45.9      7.13        51.9      63.9      46.9       2       5     135     146    1011    0.00
    02/28/2015 20:40      82    46.1      7.13        51.6      63.9      46.9       0       1     112     145    1011    0.00
    02/28/2015 20:50      83    46.3      7.13        51.4      63.9      46.9       0       0       0      88    1011    0.00
    02/28/2015 21:00      83    46.3      7.13        51.3      63.9      46.9       0       0       0     125    1011    0.00
    02/28/2015 21:10      84    46.2      7.13        51.1      63.9      46.9       0       0       0     152    1011    0.00
    02/28/2015 21:20      84    46.3      7.13        51.0      63.9      46.9       0       0       0     148    1011    0.00
    02/28/2015 21:30      85    46.6      7.13        51.0      63.9      46.9       0       0       0     223    1011    0.00
    02/28/2015 21:40      85    46.9      7.13        51.2      63.9      46.9       0       1     307     306    1011    0.00
    02/28/2015 21:50      84    46.6      7.13        51.1      63.9      46.9       0       0     311     309    1011    0.00
    02/28/2015 22:00      85    46.4      7.13        51.0      63.9      46.9       0       2      47      72    1011    0.00
    02/28/2015 22:10      84    46.7      7.13        51.2      63.9      46.9       0       1      44      53    1011    0.00
    02/28/2015 22:20      83    46.3      7.13        51.4      63.9      46.9       1       2      56      65    1011    0.00
    02/28/2015 22:30      83    46.6      7.13        51.5      63.9      46.9       1       5      84      76    1011    0.00
    02/28/2015 22:40      80    45.6      7.13        51.0      63.9      46.9       2       4      91      71    1011    0.00
    02/28/2015 22:50      79    44.4      7.13        50.6      63.9      46.9       3       6      70      44    1012    0.00
    02/28/2015 23:00      81    44.5      7.13        50.3      63.9      46.9       3       4      63      73    1012    0.00
    02/28/2015 23:10      80    44.3      7.13        50.0      63.9      46.9       3       5      50      67    1011    0.00
    02/28/2015 23:20      79    43.5      7.13        49.7      63.9      46.9       4       7      50      68    1012    0.00
    02/28/2015 23:30      81    43.6      7.13        49.5      63.9      46.9       1       3      11       4    1012    0.00
    02/28/2015 23:40      81    43.9      7.13        49.5      63.9      46.9       2       5     360     345    1012    0.00
    02/28/2015 23:50      81    43.9      7.13        49.5      63.9      46.9       2       4     357     353    1012    0.00
    03/01/2015 00:00      80    43.9      7.13        49.6      63.9      46.9       1       4      31      70    1012    0.00
    03/01/2015 00:10      81    43.9      7.14        49.7      49.9      49.5       1       3       4       1    1012    0.01
    03/01/2015 00:20      82    44.3      7.14        49.6      49.9      49.4       0       2     335     336    1012    0.00
    03/01/2015 00:30      84    44.5      7.15        49.5      49.9      49.2       1       4     270     247    1012    0.01
    03/01/2015 00:40      85    44.6      7.23        49.1      49.9      48.7       1       4     310     245    1012    0.08
    03/01/2015 00:50      87    44.8      7.26        48.8      49.9      48.6       1       3     343     303    1012    0.03
    03/01/2015 01:00      87    44.9      7.26        48.6      49.9      48.3       1       3     294     277    1012    0.00
    03/01/2015 01:10      88    45.1      7.29        48.5      49.9      48.3       2       5     278     250    1012    0.03
    03/01/2015 01:20      88    44.9      7.48        48.3      49.9      47.7       3      10     198      65    1012    0.19
    03/01/2015 01:30      83    43.2      7.61        47.5      49.9      47.2       3       9      79     135    1012    0.13
    03/01/2015 01:40      86    43.0      7.65        47.3      49.9      46.9       3       6      11       4    1012    0.04
    03/01/2015 01:50      87    43.4      7.68        47.1      49.9      46.9       1       4     348       3    1012    0.03
    03/01/2015 02:00      88    43.6      7.72        47.1      49.9      46.9       1       2     296     257    1012    0.04
    03/01/2015 02:10      89    44.1      7.75        47.3      49.9      46.9       0       2     297     355    1012    0.03
    03/01/2015 02:20      89    44.4      7.79        47.5      49.9      46.9       2       4     327     342    1012    0.04
    03/01/2015 02:30      89    44.4      7.81        47.4      49.9      46.9       3       5       3     353    1012    0.02
    03/01/2015 02:40      89    44.4      7.84        47.4      49.9      46.9       2       5      21     352    1012    0.03
    03/01/2015 02:50      89    44.4      7.85        47.4      49.9      46.9       4       9       3       6    1012    0.01
    03/01/2015 03:00      89    44.2      7.85        47.2      49.9      46.9       1       5       3      16    1012    0.00
    03/01/2015 03:10      89    44.2      7.85        47.2      49.9      46.9       1       2      51      64    1012    0.00
    03/01/2015 03:20      89    43.9      7.85        46.9      49.9      46.7       0       0       0     353    1012    0.00
    03/01/2015 03:30      90    43.9      7.85        46.8      49.9      46.6       1       2      26      57    1012    0.00
    03/01/2015 03:40      90    44.0      7.85        46.9      49.9      46.6       1       3      35      31    1012    0.00
    03/01/2015 03:50      90    44.0      7.85        46.9      49.9      46.6       1       4      37      52    1011    0.00
    03/01/2015 04:00      90    43.8      7.85        46.7      49.9      46.6       1       3      63      36    1011    0.00
    03/01/2015 04:10      90    43.7      7.85        46.6      49.9      46.5       2       5      55      63    1011    0.00
    03/01/2015 04:20      90    43.6      7.85        46.5      49.9      46.3       2       5      37      74    1012    0.00
    03/01/2015 04:30      90    43.4      7.85        46.3      49.9      46.1       1       2      26       9    1012    0.00
    03/01/2015 04:40      89    43.3      7.85        46.2      49.9      46.0       1       3      29      70    1012    0.00
    03/01/2015 04:50      90    43.3      7.86        46.1      49.9      46.0       2       4      64      46    1012    0.01
    03/01/2015 05:00      90    43.3      7.86        46.1      49.9      45.9       2       6      41      30    1012    0.00
    03/01/2015 05:10      90    43.5      7.86        46.3      49.9      45.9       1       3      19      21    1012    0.00
    03/01/2015 05:20      90    43.6      7.86        46.5      49.9      45.9       2       4       2       0    1012    0.00
    03/01/2015 05:30      89    43.5      7.86        46.4      49.9      45.9       1       4     350     345    1012    0.00
    03/01/2015 05:40      89    43.3      7.86        46.2      49.9      45.9       1       3     333     346    1012    0.00
    03/01/2015 05:50      89    43.0      7.86        46.0      49.9      45.8       0       2     296     281    1012    0.00
    03/01/2015 06:00      90    43.2      7.86        46.1      49.9      45.8       1       3     357     344    1012    0.00
    03/01/2015 06:10      90    43.5      7.86        46.3      49.9      45.8       1       4       4     333    1012    0.00
    03/01/2015 06:20      90    43.6      7.86        46.4      49.9      45.8       0       2     255     260    1012    0.00
    03/01/2015 06:30      90    43.6      7.86        46.5      49.9      45.8       1       3     265     266    1012    0.00
    03/01/2015 06:40      90    43.8      7.86        46.6      49.9      45.8       3       5     193     172    1012    0.00
    03/01/2015 06:50      90    44.1      7.86        47.0      49.9      45.8       2       5     218     206    1012    0.00
    03/01/2015 07:00      89    44.5      7.86        47.4      49.9      45.8       3       8     235     253    1012    0.00
    03/01/2015 07:10      89    44.4      7.87        47.4      49.9      45.8       4       9     265     258    1013    0.01
    03/01/2015 07:20      89    44.1      7.88        47.2      49.9      45.8       2       5     283     271    1013    0.01
    03/01/2015 07:30      89    43.9      7.89        47.0      49.9      45.8       3       6     292     273    1013    0.01
    03/01/2015 07:40      88    43.8      7.90        47.0      49.9      45.8       2       4     301     282    1013    0.01
    03/01/2015 07:50      87    43.5      7.94        46.9      49.9      45.8       2       6     304     309    1013    0.04
    03/01/2015 08:00      86    43.0      7.97        46.9      49.9      45.8       2       6     304     247    1013    0.03
    03/01/2015 08:10      86    42.9      7.99        46.9      49.9      45.8       2       9     310     318    1013    0.02
    03/01/2015 08:20      85    43.0      8.00        47.0      49.9      45.8       2       5     305     348    1013    0.01
    03/01/2015 08:30      86    43.2      8.02        47.4      49.9      45.8       2       4     297     310    1013    0.02
    03/01/2015 08:40      85    43.8      8.02        48.0      49.9      45.8       2       4     303     298    1013    0.00
    03/01/2015 08:50      83    44.2      8.03        48.6      49.9      45.8       2       5     311     354    1013    0.01
    03/01/2015 09:00      81    44.0      8.03        49.2      49.9      45.8       2       6     309     341    1013    0.00
    03/01/2015 09:10      80    43.9      8.03        49.9      50.5      45.8       3       6     320     340    1013    0.00
    03/01/2015 09:20      77    44.5      8.03        50.8      51.2      45.8       2       4     338     336    1013    0.00
    03/01/2015 09:30      74    44.4      8.03        51.9      52.5      45.8       3       7     354     314    1013    0.00
    03/01/2015 09:40      69    44.4      8.03        52.9      53.1      45.8       3       9     350      11    1013    0.00
    03/01/2015 09:50      69    43.5      8.03        53.2      53.4      45.8       3       6       2       0    1013    0.00
    03/01/2015 10:00      68    43.5      8.03        53.5      53.8      45.8       3       7       8       1    1013    0.00
    03/01/2015 10:10      65    43.0      8.03        54.0      54.5      45.8       2       5      17     342    1013    0.00
    03/01/2015 10:20      60    41.9      8.03        54.9      55.4      45.8       3       6      60      62    1013    0.00
    03/01/2015 10:30      59    41.6      8.03        55.4      55.7      45.8       3       6      76      63    1013    0.00
    03/01/2015 10:40      57    41.2      8.03        55.9      56.4      45.8       3       6      91     114    1013    0.00
    03/01/2015 10:50      60    41.5      8.03        56.1      56.7      45.8       4       7      75      97    1013    0.00
    03/01/2015 11:00      57    41.9      8.03        57.1      57.4      45.8       3       8     111     143    1012    0.00
    03/01/2015 11:10      52    41.7      8.03        57.5      58.2      45.8       4       8     117      86    1012    0.00
    03/01/2015 11:20      54    40.4      8.03        57.8      58.2      45.8       4      10      63      55    1012    0.00
    03/01/2015 11:30      55    41.8      8.03        58.6      59.0      45.8       3       7     124     123    1012    0.00
    03/01/2015 11:40      53    41.6      8.03        58.9      59.3      45.8       4       9     160     165    1012    0.00
    03/01/2015 11:50      46    40.9      8.03        59.4      59.8      45.8       3       6      93      99    1012    0.00
    03/01/2015 12:00      47    40.2      8.03        60.1      60.9      45.8       3       7      99      92    1012    0.00
    03/01/2015 12:10      44    38.4      8.03        59.8      60.9      45.8       4      10     131     137    1012    0.00
    03/01/2015 12:20      42    38.0      8.03        59.4      60.9      45.8       4       7      93      87    1011    0.00
    03/01/2015 12:30      41    38.6      8.03        60.8      61.7      45.8       5      11     120     156    1011    0.00
    03/01/2015 12:40      42    37.6      8.03        61.6      62.0      45.8       5      10     113     153    1011    0.00
    03/01/2015 12:50      45    38.6      8.03        61.7      62.3      45.8       6      11     151     168    1011    0.00
    03/01/2015 13:00      45    39.1      8.03        61.8      62.8      45.8       7      12     138     153    1011    0.00
    03/01/2015 13:10      43    36.2      8.03        60.1      62.8      45.8       5      10      86      87    1011    0.00
    03/01/2015 13:20      43    37.2      8.03        59.6      62.8      45.8       6      10      83      76    1011    0.00
    03/01/2015 13:30      46    37.9      8.03        59.4      62.8      45.8       5       9      99      73    1011    0.00
    03/01/2015 13:40      46    38.4      8.03        59.4      62.8      45.8       5       9      91     132    1011    0.00
    03/01/2015 13:50      48    38.8      8.03        59.0      62.8      45.8       6      10      84     102    1010    0.00
    03/01/2015 14:00      46    38.6      8.03        59.0      62.8      45.8       4       9      89      72    1010    0.00
    03/01/2015 14:10      48    38.5      8.03        59.0      62.8      45.8       4       9      90      64    1010    0.00
    03/01/2015 14:20      54    39.3      8.03        58.8      62.8      45.8       5      14     107      88    1011    0.00
    03/01/2015 14:30      59    42.8      8.03        58.0      62.8      45.8       7      16     145     165    1011    0.00
    03/01/2015 14:40      65    44.1      8.04        57.5      62.8      45.8       6      11     157     154    1011    0.01
    03/01/2015 14:50      64    45.4      8.04        56.7      62.8      45.8       9      18     154     159    1011    0.00
    03/01/2015 15:00      63    43.8      8.04        56.2      62.8      45.8       9      14     157     166    1011    0.00
    03/01/2015 15:10      61    42.9      8.04        56.2      62.8      45.8       6      13     139     151    1011    0.00
    03/01/2015 15:20      62    42.9      8.04        55.5      62.8      45.8       6      14     151     169    1011    0.00
    03/01/2015 15:30      62    41.6      8.04        54.5      62.8      45.8       8      16     153     159    1011    0.00
    03/01/2015 15:40      61    41.0      8.04        53.6      62.8      45.8       6      13     153     137    1011    0.00
    03/01/2015 15:50      62    40.3      8.04        53.1      62.8      45.8       4       7     172     151    1011    0.00
    03/01/2015 16:00      64    40.2      8.04        52.7      62.8      45.8       4       7     171     188    1011    0.00
    03/01/2015 16:10      68    41.0      8.04        52.2      62.8      45.8       2       5     209     180    1011    0.00
    03/01/2015 16:20      70    42.1      8.04        51.9      62.8      45.8       2       6     215     246    1011    0.00
    03/01/2015 16:30      72    42.5      8.05        51.5      62.8      45.8       0       2     239     254    1012    0.01
    03/01/2015 16:40      78    43.2      8.07        50.8      62.8      45.8       0       2     275     313    1012    0.02
    03/01/2015 16:50      82    44.4      8.08        50.2      62.8      45.8       1       2     302     290    1012    0.01
    03/01/2015 17:00      85    45.3      8.09        50.1      62.8      45.8       3       5     293     276    1012    0.01
    03/01/2015 17:10      85    45.8      8.10        50.1      62.8      45.8       2       4     289     295    1011    0.01
    03/01/2015 17:20      85    45.5      8.11        49.8      62.8      45.8       3       6     281     289    1011    0.01
    03/01/2015 17:30      85    45.4      8.11        49.7      62.8      45.8       1       4     289     273    1011    0.00
    03/01/2015 17:40      85    45.4      8.11        49.6      62.8      45.8       0       1     348     282    1011    0.00
    03/01/2015 17:50      85    45.6      8.11        49.9      62.8      45.8       1       3      30       6    1012    0.00
    03/01/2015 18:00      85    46.0      8.11        50.3      62.8      45.8       2       3     140     153    1012    0.00
    03/01/2015 18:10      86    46.1      8.11        50.2      62.8      45.8       4       6     151     157    1012    0.00
    03/01/2015 18:20      86    46.2      8.11        50.2      62.8      45.8       4       6     155     162    1012    0.00
    03/01/2015 18:30      86    46.3      8.11        50.1      62.8      45.8       4       7     146     155    1012    0.00
    03/01/2015 18:40      86    46.0      8.12        49.8      62.8      45.8       3       6     135     141    1012    0.01
    03/01/2015 18:50      87    45.5      8.12        49.3      62.8      45.8       3       5     128     140    1012    0.00
    03/01/2015 19:00      87    45.2      8.15        48.9      62.8      45.8       3       6     140     169    1012    0.03
    03/01/2015 19:10      88    44.9      8.22        48.5      62.8      45.8       1       4     128     131    1012    0.07
    03/01/2015 19:20      88    44.8      8.26        48.3      62.8      45.8       2       4      97      95    1012    0.04
    03/01/2015 19:30      88    44.9      8.31        48.2      62.8      45.8       1       3     356      65    1012    0.05
    03/01/2015 19:40      89    45.1      8.34        48.3      62.8      45.8       1       4     315     323    1012    0.03
    03/01/2015 19:50      89    45.3      8.35        48.3      62.8      45.8       1       2      90      11    1012    0.01
    03/01/2015 20:00      89    45.4      8.35        48.4      62.8      45.8       2       5      22      39    1013    0.00
    03/01/2015 20:10      89    45.5      8.36        48.5      62.8      45.8       3       6       6       5    1013    0.01
    03/01/2015 20:20      89    45.6      8.36        48.7      62.8      45.8       4       8       7       2    1013    0.00
    03/01/2015 20:30      89    45.8      8.36        48.9      62.8      45.8       2       4     353     322    1013    0.00
    03/01/2015 20:40      89    45.9      8.36        49.0      62.8      45.8       2       6     349     347    1013    0.00
    03/01/2015 20:50      89    45.9      8.36        49.1      62.8      45.8       1       3      95      85    1013    0.00
    03/01/2015 21:00      87    45.3      8.37        48.8      62.8      45.8       3       6      54      22    1013    0.01
    03/01/2015 21:10      86    44.5      8.37        48.4      62.8      45.8       2       4      53      56    1013    0.00
    03/01/2015 21:20      86    44.4      8.37        48.3      62.8      45.8       1       2     279      63    1013    0.00
    03/01/2015 21:30      87    44.5      8.37        48.3      62.8      45.8       0       1     189     231    1013    0.00
    03/01/2015 21:40      87    44.8      8.38        48.5      62.8      45.8       0       2     229     277    1013    0.01
    03/01/2015 21:50      88    45.0      8.38        48.5      62.8      45.8       1       2     297     301    1013    0.00
    03/01/2015 22:00      89    45.5      8.38        48.7      62.8      45.8       2       4     287     287    1013    0.00
    03/01/2015 22:10      89    45.7      8.38        48.8      62.8      45.8       1       4     278     262    1013    0.00
    03/01/2015 22:20      89    45.6      8.38        48.6      62.8      45.8       1       3     269     257    1013    0.00
    03/01/2015 22:30      89    45.7      8.38        48.7      62.8      45.8       0       2     293     297    1013    0.00
    03/01/2015 22:40      89    45.4      8.38        48.5      62.8      45.8       2       4     252     243    1013    0.00
    03/01/2015 22:50      88    45.0      8.38        48.2      62.8      45.8       2       4     285     300    1013    0.00
    03/01/2015 23:00      88    44.7      8.38        48.0      62.8      45.8       2       5     263     233    1013    0.00
    03/01/2015 23:10      87    44.6      8.38        48.1      62.8      45.8       3       7     208     196    1013    0.00
    03/01/2015 23:20      86    44.4      8.39        48.3      62.8      45.8       2       6     204     183    1013    0.01
    03/01/2015 23:30      86    44.2      8.43        48.2      62.8      45.8       1       3     189     239    1013    0.04
    03/01/2015 23:40      87    44.5      8.48        48.3      62.8      45.8       1       3      72      56    1013    0.05
    03/01/2015 23:50      88    44.8      8.52        48.2      62.8      45.8       2       5      80      82    1013    0.04
    03/02/2015 00:00      88    44.7      8.54        47.9      62.8      45.8       6       9      55      34    1012    0.02
    03/02/2015 00:10      88    44.3      8.55        47.6      47.8      47.5       5      10      45      30    1012    0.01
    03/02/2015 00:20      88    44.3      8.56        47.6      47.8      47.4       0       3      30      96    1012    0.01
    03/02/2015 00:30      88    44.4      8.56        47.7      47.9      47.4       1       4      53      49    1012    0.00
    03/02/2015 00:40      88    44.4      8.56        47.6      47.9      47.4       1       5      19     351    1012    0.00
    03/02/2015 00:50      88    44.2      8.56        47.5      47.9      47.3       2       6      57      48    1012    0.00
    03/02/2015 01:00      87    44.1      8.56        47.6      47.9      47.3       4       7      48      66    1012    0.00
    03/02/2015 01:10      87    44.0      8.56        47.7      47.9      47.3       2       5      18       1    1012    0.00
    03/02/2015 01:20      87    44.1      8.56        47.8      48.0      47.3       1       3      23     354    1012    0.00
    03/02/2015 01:30      87    44.2      8.56        47.8      48.0      47.3       2       5      57      36    1012    0.00
    03/02/2015 01:40      87    44.3      8.56        47.8      48.0      47.3       1       2      67      38    1012    0.00
    03/02/2015 01:50      88    44.1      8.56        47.6      48.0      47.3       1       2     278     272    1012    0.00
    03/02/2015 02:00      88    43.9      8.56        47.3      48.0      47.0       0       1     258     246    1012    0.00
    03/02/2015 02:10      88    43.6      8.56        46.9      48.0      46.7       0       1     263     269    1011    0.00
    03/02/2015 02:20      89    43.4      8.56        46.6      48.0      46.3       0       1     214     201    1011    0.00
    03/02/2015 02:30      89    43.4      8.56        46.5      48.0      46.1       1       3     257     250    1011    0.00
    03/02/2015 02:40      89    43.6      8.56        46.6      48.0      46.1       0       1     291     267    1011    0.00
    03/02/2015 02:50      89    43.3      8.56        46.3      48.0      45.9       0       1     260     268    1011    0.00
    03/02/2015 03:00      90    43.1      8.56        46.0      48.0      45.8       1       2     301     299    1011    0.00
    03/02/2015 03:10      90    43.2      8.56        46.0      48.0      45.7       0       2     295     262    1011    0.00
    03/02/2015 03:20      90    42.8      8.56        45.6      48.0      45.3       0       0       0     278    1011    0.00
    03/02/2015 03:30      90    42.5      8.56        45.2      48.0      44.8       1       2     291     287    1011    0.00
    03/02/2015 03:40      90    42.0      8.56        44.8      48.0      44.5       0       1     295     297    1011    0.00
    03/02/2015 03:50      90    42.1      8.56        44.7      48.0      44.3       0       1     317     315    1011    0.00
    03/02/2015 04:00      91    41.8      8.56        44.4      48.0      44.1       0       0       0     306    1011    0.00
    03/02/2015 04:10      91    41.7      8.56        44.2      48.0      44.0       0       1     315     315    1011    0.00
    03/02/2015 04:20      91    41.6      8.56        44.1      48.0      44.0       0       1     336     327    1011    0.00
    03/02/2015 04:30      91    41.6      8.56        44.1      48.0      43.9       0       0      38      37    1011    0.00
    03/02/2015 04:40      91    41.4      8.56        43.9      48.0      43.6       0       1      29      39    1011    0.00
    03/02/2015 04:50      91    40.9      8.56        43.4      48.0      43.0       0       0       0      37    1011    0.00
    03/02/2015 05:00      91    40.6      8.56        43.0      48.0      42.7       0       0       0     309    1011    0.00
    03/02/2015 05:10      91    40.2      8.56        42.7      48.0      42.4       0       0       0     310    1011    0.00
    03/02/2015 05:20      91    40.3      8.56        42.7      48.0      42.4       0       0       0     310    1011    0.00
    03/02/2015 05:30      91    40.3      8.56        42.7      48.0      42.4       0       1     311     305    1011    0.00
    03/02/2015 05:40      91    39.9      8.56        42.3      48.0      42.1       0       0     325     324    1011    0.00
    03/02/2015 05:50      91    39.9      8.56        42.2      48.0      42.0       1       2     338     348    1011    0.00
    03/02/2015 06:00      91    40.1      8.56        42.5      48.0      42.0       1       2     351     333    1011    0.00
    03/02/2015 06:10      91    39.9      8.56        42.2      48.0      41.9       0       1     333     335    1011    0.00
    03/02/2015 06:20      91    39.9      8.56        42.2      48.0      41.9       1       2     323     327    1011    0.00
    03/02/2015 06:30      92    40.0      8.56        42.3      48.0      41.9       0       1     334     345    1011    0.00
    03/02/2015 06:40      92    40.3      8.56        42.6      48.0      41.9       0       1       3     355    1011    0.00
    03/02/2015 06:50      92    41.1      8.56        43.4      48.0      41.9       0       1      40      39    1011    0.00
    03/02/2015 07:00      92    41.5      8.56        43.8      48.0      41.9       1       4      35      31    1011    0.00
    03/02/2015 07:10      91    41.7      8.56        44.0      48.0      41.9       1       4      28      32    1011    0.00
    03/02/2015 07:20      91    42.4      8.56        44.7      48.0      41.9       1       3      51      33    1011    0.00
    03/02/2015 07:30      91    43.4      8.56        45.7      48.0      41.9       2       4      15      44    1011    0.00
    03/02/2015 07:40      90    43.8      8.56        46.4      48.0      41.9       1       2       9     351    1011    0.00
    03/02/2015 07:50      90    43.9      8.56        46.6      48.0      41.9       0       2     339      -0    1011    0.00
    03/02/2015 08:00      90    44.0      8.56        46.8      48.0      41.9       0       1     240     249    1012    0.00
    03/02/2015 08:10      89    44.5      8.56        47.3      48.0      41.9       1       2     170     162    1012    0.00
    03/02/2015 08:20      89    44.9      8.56        47.8      48.1      41.9       1       3     211     169    1012    0.00
    03/02/2015 08:30      88    44.7      8.56        47.9      48.2      41.9       1       2     209     209    1012    0.00
    03/02/2015 08:40      88    44.4      8.56        47.7      48.2      41.9       0       1     258     249    1012    0.00
    03/02/2015 08:50      87    44.5      8.56        48.0      48.3      41.9       1       1     246     229    1012    0.00
    03/02/2015 09:00      87    44.5      8.57        48.2      48.5      41.9       0       1     184     185    1012    0.01
    03/02/2015 09:10      84    44.3      8.57        48.4      48.5      41.9       0       2      91      80    1012    0.00
    03/02/2015 09:20      81    42.9      8.57        48.3      48.6      41.9       1       2     123      93    1012    0.00
    03/02/2015 09:30      79    42.4      8.57        48.5      48.8      41.9       2       4      95      90    1012    0.00
    03/02/2015 09:40      80    42.9      8.57        49.1      49.7      41.9       3       5      77     113    1012    0.00
    03/02/2015 09:50      79    43.9      8.57        50.0      50.4      41.9       3       5      88      87    1012    0.00
    03/02/2015 10:00      79    44.0      8.57        50.5      51.2      41.9       3       6      92      98    1012    0.00
    03/02/2015 10:10      73    44.4      8.57        51.6      52.1      41.9       3       7      82      99    1012    0.00
    03/02/2015 10:20      70    43.7      8.57        52.5      53.0      41.9       3       7      88      97    1012    0.00
    03/02/2015 10:30      69    43.9      8.57        53.3      54.4      41.9       2       6     135     163    1012    0.00
    03/02/2015 10:40      64    42.7      8.57        53.9      54.4      41.9       2       5      95      96    1012    0.00
    03/02/2015 10:50      64    41.6      8.57        53.1      54.4      41.9       1       4     148      42    1012    0.00
    03/02/2015 11:00      64    41.4      8.57        53.3      54.4      41.9       2       6      90     178    1012    0.00
    03/02/2015 11:10      66    41.9      8.57        53.3      54.4      41.9       3       7     157     151    1012    0.00
    03/02/2015 11:20      63    42.5      8.57        53.6      54.8      41.9       2       6     107      92    1012    0.00
    03/02/2015 11:30      56    41.7      8.57        55.4      56.3      41.9       4       8     142     176    1012    0.00
    03/02/2015 11:40      54    41.2      8.57        56.5      57.3      41.9       5       9     156     151    1012    0.00
    03/02/2015 11:50      55    40.3      8.57        56.5      57.8      41.9       4       8     157     156    1011    0.00
    03/02/2015 12:00      54    39.5      8.57        56.2      57.8      41.9       4       8     159     162    1011    0.00
    03/02/2015 12:10      52    39.0      8.57        56.1      57.8      41.9       3       7      64     116    1011    0.00
    03/02/2015 12:20      49    38.9      8.57        56.3      57.8      41.9       2       6     195     165    1011    0.00
    03/02/2015 12:30      49    38.3      8.57        57.2      57.8      41.9       3       8     153     140    1011    0.00
    03/02/2015 12:40      54    38.4      8.57        55.7      57.8      41.9       4       9     161     170    1011    0.00
    03/02/2015 12:50      60    40.3      8.57        55.3      57.8      41.9       8      18     157     175    1011    0.00
    03/02/2015 13:00      64    40.3      8.57        52.6      57.8      41.9       9      17     168     171    1011    0.00
    03/02/2015 13:10      70    40.1      8.57        51.4      57.8      41.9       8      13     187     186    1011    0.00
    03/02/2015 13:20      80    42.7      8.60        50.3      57.8      41.9       3      10     244     192    1011    0.03
    03/02/2015 13:30      78    43.8      8.62        49.5      57.8      41.9       2       4     102     145    1011    0.02
    03/02/2015 13:40      71    43.5      8.62        50.2      57.8      41.9       2       5      86      64    1011    0.00
    03/02/2015 13:50      70    43.4      8.62        52.0      57.8      41.9       3       5      45      63    1011    0.00
    03/02/2015 14:00      64    43.1      8.62        53.2      57.8      41.9       3       6      72      57    1011    0.00
    03/02/2015 14:10      65    42.5      8.62        54.1      57.8      41.9       2       5      97      83    1011    0.00
    03/02/2015 14:20      64    42.5      8.62        53.5      57.8      41.9       2       5     107     147    1011    0.00
    03/02/2015 14:30      70    42.6      8.62        53.4      57.8      41.9       2       5     166     165    1011    0.00
    03/02/2015 14:40      70    43.5      8.62        53.2      57.8      41.9       4       8     168     163    1011    0.00
    03/02/2015 14:50      72    43.0      8.62        52.2      57.8      41.9       4       7     162     178    1011    0.00
    03/02/2015 15:00      71    43.2      8.62        52.4      57.8      41.9       2       4     116      80    1011    0.00
    03/02/2015 15:10      71    43.5      8.62        52.6      57.8      41.9       1       3     126      97    1011    0.00
    03/02/2015 15:20      69    43.1      8.62        52.6      57.8      41.9       1       3     124     154    1011    0.00
    03/02/2015 15:30      69    42.9      8.62        52.5      57.8      41.9       1       4      93     153    1011    0.00
    03/02/2015 15:40      74    43.2      8.64        52.0      57.8      41.9       2       5      92      94    1011    0.02
    03/02/2015 15:50      80    43.9      8.67        50.9      57.8      41.9       4       6       2     343    1011    0.03
    03/02/2015 16:00      84    45.0      8.71        50.1      57.8      41.9       2       7     308     324    1011    0.04
    03/02/2015 16:10      85    45.0      8.73        49.5      57.8      41.9       4       8     340     312    1011    0.02
    03/02/2015 16:20      84    45.2      8.73        49.5      57.8      41.9       3       6     359       2    1011    0.00
    03/02/2015 16:30      82    44.9      8.73        49.8      57.8      41.9       2       6      15       0    1011    0.00
    03/02/2015 16:40      83    44.6      8.73        49.7      57.8      41.9       3       6       5     340    1011    0.00
    03/02/2015 16:50      84    44.8      8.73        49.6      57.8      41.9       3       5     339      -0    1011    0.00
    03/02/2015 17:00      85    45.0      8.73        49.5      57.8      41.9       2       5     324     326    1012    0.00
    03/02/2015 17:10      85    44.8      8.73        49.3      57.8      41.9       1       4     295     294    1012    0.00
    03/02/2015 17:20      85    44.6      8.73        49.0      57.8      41.9       1       4     299     303    1012    0.00
    03/02/2015 17:30      86    44.7      8.73        48.9      57.8      41.9       1       3     316     322    1012    0.00
    03/02/2015 17:40      86    44.9      8.73        49.0      57.8      41.9       1       3     334     346    1012    0.00
    03/02/2015 17:50      86    45.0      8.73        49.1      57.8      41.9       1       2     329     325    1012    0.00
    03/02/2015 18:00      86    45.0      8.73        49.1      57.8      41.9       0       1     323     329    1012    0.00
    03/02/2015 18:10      86    45.0      8.73        49.0      57.8      41.9       1       4     337     349    1012    0.00
    03/02/2015 18:20      86    44.7      8.73        48.8      57.8      41.9       0       2     317     340    1012    0.00
    03/02/2015 18:30      86    44.4      8.73        48.4      57.8      41.9       0       1     345     338    1012    0.00
    03/02/2015 18:40      87    44.3      8.73        48.0      57.8      41.9       0       2      56      80    1012    0.00
    03/02/2015 18:50      87    44.8      8.73        48.4      57.8      41.9       2       4      48      44    1012    0.00
    03/02/2015 19:00      87    44.8      8.73        48.5      57.8      41.9       1       4      14      48    1013    0.00
    03/02/2015 19:10      88    44.3      8.73        47.9      57.8      41.9       0       2     355      40    1013    0.00
    03/02/2015 19:20      88    44.6      8.73        47.9      57.8      41.9       2       4       3     354    1013    0.00
    03/02/2015 19:30      88    44.7      8.73        48.0      57.8      41.9       2       3       6       2    1013    0.00
    03/02/2015 19:40      88    44.5      8.73        47.9      57.8      41.9       2       4      15     353    1013    0.00
    03/02/2015 19:50      88    44.4      8.73        47.8      57.8      41.9       2       4       7       8    1013    0.00
    03/02/2015 20:00      88    44.3      8.73        47.8      57.8      41.9       2       3       3       5    1013    0.00
    03/02/2015 20:10      88    44.2      8.73        47.7      57.8      41.9       2       4       6      15    1013    0.00
    03/02/2015 20:20      87    44.2      8.73        47.8      57.8      41.9       2       3      10     352    1013    0.00
    03/02/2015 20:30      87    44.1      8.73        47.8      57.8      41.9       2       3       7      13    1013    0.00
    03/02/2015 20:40      86    44.0      8.73        47.9      57.8      41.9       1       4      24      25    1013    0.00
    03/02/2015 20:50      86    43.9      8.73        47.9      57.8      41.9       2       4      13       8    1013    0.00
    03/02/2015 21:00      86    43.9      8.73        47.8      57.8      41.9       1       3       8      22    1013    0.00
    03/02/2015 21:10      87    43.8      8.73        47.6      57.8      41.9       2       3       1       7    1013    0.00
    03/02/2015 21:20      87    44.1      8.73        47.6      57.8      41.9       3       4       2      23    1014    0.00
    03/02/2015 21:30      87    44.2      8.73        47.7      57.8      41.9       3       5       2       9    1014    0.00
    03/02/2015 21:40      87    44.3      8.73        48.0      57.8      41.9       2       4      22       1    1014    0.00
    03/02/2015 21:50      86    44.3      8.73        48.2      57.8      41.9       2       4       9      30    1014    0.00
    03/02/2015 22:00      85    44.4      8.73        48.5      57.8      41.9       2       5       4       5    1014    0.00
    03/02/2015 22:10      85    44.4      8.73        48.6      57.8      41.9       1       4       1       2    1014    0.00
    03/02/2015 22:20      85    44.5      8.73        48.6      57.8      41.9       2       4       3     355    1014    0.00
    03/02/2015 22:30      84    44.5      8.73        48.8      57.8      41.9       2       4      39      19    1014    0.00
    03/02/2015 22:40      84    44.2      8.73        49.0      57.8      41.9       1       4      48      38    1014    0.00
    03/02/2015 22:50      85    44.4      8.74        48.9      57.8      41.9       1       3      35      45    1014    0.01
    03/02/2015 23:00      86    44.6      8.74        48.8      57.8      41.9       1       3      73     344    1014    0.00
    03/02/2015 23:10      86    44.8      8.75        48.8      57.8      41.9       1       4      50      51    1014    0.01
    03/02/2015 23:20      86    45.0      8.76        48.9      57.8      41.9       1       3      88      69    1014    0.01
    03/02/2015 23:30      87    45.0      8.76        48.9      57.8      41.9       1       3      19      19    1014    0.00
    03/02/2015 23:40      88    45.2      8.76        48.8      57.8      41.9       2       3     346     337    1014    0.00
    03/02/2015 23:50      88    45.3      8.76        48.8      57.8      41.9       1       3     340      22    1014    0.00
    03/03/2015 00:00      88    45.4      8.76        48.8      57.8      41.9       1       4      11       7    1014    0.00
    03/03/2015 00:10      88    45.3      8.76        48.8      49.0      48.6       0       2      42      56    1014    0.00
    03/03/2015 00:20      87    45.3      8.76        48.8      49.0      48.6       0       2     360     344    1014    0.00
    03/03/2015 00:30      88    45.1      8.76        48.7      49.0      48.5       0       2     337     341    1014    0.00
    03/03/2015 00:40      87    45.0      8.76        48.5      49.0      48.4       1       3     335     344    1014    0.00
    03/03/2015 00:50      87    44.8      8.76        48.4      49.0      48.2       1       3     343     345    1014    0.00
    03/03/2015 01:00      87    44.6      8.76        48.3      49.0      48.1       0       1       6       4    1014    0.00
    03/03/2015 01:10      87    44.5      8.76        48.1      49.0      47.9       0       2      13      27    1013    0.00
    03/03/2015 01:20      88    44.3      8.76        47.8      49.0      47.5       1       3       1      10    1013    0.00
    03/03/2015 01:30      88    43.9      8.76        47.4      49.0      47.2       1       2     356     355    1013    0.00
    03/03/2015 01:40      88    43.8      8.76        47.2      49.0      47.0       2       4       7     346    1013    0.00
    03/03/2015 01:50      87    43.6      8.76        47.1      49.0      46.8       2       4       6      22    1013    0.00
    03/03/2015 02:00      87    43.2      8.76        46.8      49.0      46.5       2       4     351      -0    1013    0.00
    03/03/2015 02:10      87    42.9      8.76        46.4      49.0      46.1       2       3     359     342    1013    0.00
    03/03/2015 02:20      88    42.7      8.76        46.2      49.0      46.0       2       3       6      17    1013    0.00
    03/03/2015 02:30      87    42.5      8.76        46.1      49.0      45.8       1       3       9       6    1013    0.00
    03/03/2015 02:40      87    41.9      8.76        45.5      49.0      45.0       0       0     348     349    1013    0.00
    03/03/2015 02:50      88    41.3      8.76        44.8      49.0      44.1       0       1     137     139    1013    0.00
    03/03/2015 03:00      89    41.0      8.76        44.3      49.0      44.1       1       2      52      55    1012    0.00
    03/03/2015 03:10      89    41.5      8.76        44.6      49.0      44.1       1       2      63      76    1012    0.00